sensor_id;sensor_type;location;lat;lon;timestamp;P1;durP1;ratioP1;P2;durP2;ratioP2
12429;SDS011;6279;42.192;24.326;2024-02-23T00:00:29;19.43;;;13.60;;
12429;SDS011;6279;42.192;24.326;2024-02-23T00:02:54;19.70;;;13.50;;
12429;SDS011;6279;42.192;24.326;2024-02-23T00:05:21;16.20;;;12.67;;
12429;SDS011;6279;42.192;24.326;2024-02-23T00:07:47;20.20;;;13.13;;
12429;SDS011;6279;42.192;24.326;2024-02-23T00:10:12;15.83;;;11.83;;
12429;SDS011;6279;42.192;24.326;2024-02-23T00:12:37;18.17;;;13.20;;
12429;SDS011;6279;42.192;24.326;2024-02-23T00:15:03;18.50;;;13.07;;
12429;SDS011;6279;42.192;24.326;2024-02-23T00:17:29;17.23;;;12.53;;
12429;SDS011;6279;42.192;24.326;2024-02-23T00:19:55;20.00;;;12.43;;
12429;SDS011;6279;42.192;24.326;2024-02-23T00:22:20;17.17;;;12.10;;
12429;SDS011;6279;42.192;24.326;2024-02-23T00:24:45;16.53;;;12.37;;
12429;SDS011;6279;42.192;24.326;2024-02-23T00:27:11;17.37;;;12.33;;
12429;SDS011;6279;42.192;24.326;2024-02-23T00:29:37;18.77;;;12.97;;
12429;SDS011;6279;42.192;24.326;2024-02-23T00:32:03;17.20;;;12.77;;
12429;SDS011;6279;42.192;24.326;2024-02-23T00:34:28;15.53;;;12.23;;
12429;SDS011;6279;42.192;24.326;2024-02-23T00:36:55;18.40;;;12.63;;
12429;SDS011;6279;42.192;24.326;2024-02-23T00:39:21;17.00;;;12.73;;
12429;SDS011;6279;42.192;24.326;2024-02-23T00:41:46;18.77;;;13.23;;
12429;SDS011;6279;42.192;24.326;2024-02-23T00:44:15;19.53;;;14.53;;
12429;SDS011;6279;42.192;24.326;2024-02-23T00:46:41;20.50;;;13.73;;
12429;SDS011;6279;42.192;24.326;2024-02-23T00:49:06;18.80;;;13.03;;
12429;SDS011;6279;42.192;24.326;2024-02-23T00:51:32;18.07;;;11.90;;
12429;SDS011;6279;42.192;24.326;2024-02-23T00:53:57;17.53;;;12.00;;
12429;SDS011;6279;42.192;24.326;2024-02-23T00:56:23;18.20;;;12.97;;
12429;SDS011;6279;42.192;24.326;2024-02-23T00:58:48;19.63;;;12.53;;
12429;SDS011;6279;42.192;24.326;2024-02-23T01:01:14;17.60;;;12.30;;
12429;SDS011;6279;42.192;24.326;2024-02-23T01:03:40;20.17;;;13.37;;
12429;SDS011;6279;42.192;24.326;2024-02-23T01:06:06;18.53;;;12.50;;
12429;SDS011;6279;42.192;24.326;2024-02-23T01:08:31;16.83;;;12.50;;
12429;SDS011;6279;42.192;24.326;2024-02-23T01:10:57;20.40;;;11.77;;
12429;SDS011;6279;42.192;24.326;2024-02-23T01:13:22;16.53;;;12.13;;
12429;SDS011;6279;42.192;24.326;2024-02-23T01:15:48;17.83;;;11.60;;
12429;SDS011;6279;42.192;24.326;2024-02-23T01:18:13;17.97;;;12.80;;
12429;SDS011;6279;42.192;24.326;2024-02-23T01:20:39;23.23;;;15.53;;
12429;SDS011;6279;42.192;24.326;2024-02-23T01:23:04;23.63;;;15.40;;
12429;SDS011;6279;42.192;24.326;2024-02-23T01:25:30;25.70;;;16.13;;
12429;SDS011;6279;42.192;24.326;2024-02-23T01:27:55;24.57;;;16.10;;
12429;SDS011;6279;42.192;24.326;2024-02-23T01:30:21;30.83;;;18.47;;
12429;SDS011;6279;42.192;24.326;2024-02-23T01:32:46;29.40;;;17.37;;
12429;SDS011;6279;42.192;24.326;2024-02-23T01:35:12;28.07;;;17.37;;
12429;SDS011;6279;42.192;24.326;2024-02-23T01:37:37;26.60;;;16.03;;
12429;SDS011;6279;42.192;24.326;2024-02-23T01:40:03;25.70;;;16.97;;
12429;SDS011;6279;42.192;24.326;2024-02-23T01:42:29;26.50;;;15.37;;
12429;SDS011;6279;42.192;24.326;2024-02-23T01:44:54;22.47;;;14.83;;
12429;SDS011;6279;42.192;24.326;2024-02-23T01:47:23;23.37;;;14.80;;
12429;SDS011;6279;42.192;24.326;2024-02-23T01:49:49;19.70;;;13.40;;
12429;SDS011;6279;42.192;24.326;2024-02-23T01:52:16;25.37;;;14.47;;
12429;SDS011;6279;42.192;24.326;2024-02-23T01:54:42;22.83;;;13.57;;
12429;SDS011;6279;42.192;24.326;2024-02-23T01:57:08;22.43;;;13.30;;
12429;SDS011;6279;42.192;24.326;2024-02-23T01:59:35;19.83;;;12.83;;
12429;SDS011;6279;42.192;24.326;2024-02-23T02:02:03;22.00;;;13.30;;
12429;SDS011;6279;42.192;24.326;2024-02-23T02:04:28;19.63;;;12.57;;
12429;SDS011;6279;42.192;24.326;2024-02-23T02:06:54;18.70;;;13.13;;
12429;SDS011;6279;42.192;24.326;2024-02-23T02:09:21;20.50;;;13.53;;
12429;SDS011;6279;42.192;24.326;2024-02-23T02:11:46;22.57;;;14.50;;
12429;SDS011;6279;42.192;24.326;2024-02-23T02:14:13;21.30;;;13.87;;
12429;SDS011;6279;42.192;24.326;2024-02-23T02:16:39;20.47;;;14.43;;
12429;SDS011;6279;42.192;24.326;2024-02-23T02:19:04;24.17;;;14.77;;
12429;SDS011;6279;42.192;24.326;2024-02-23T02:21:30;19.80;;;13.43;;
12429;SDS011;6279;42.192;24.326;2024-02-23T02:23:56;21.47;;;13.90;;
12429;SDS011;6279;42.192;24.326;2024-02-23T02:26:22;17.63;;;12.47;;
12429;SDS011;6279;42.192;24.326;2024-02-23T02:28:47;15.40;;;10.47;;
12429;SDS011;6279;42.192;24.326;2024-02-23T02:31:12;16.67;;;10.80;;
12429;SDS011;6279;42.192;24.326;2024-02-23T02:33:39;14.43;;;9.60;;
12429;SDS011;6279;42.192;24.326;2024-02-23T02:36:05;13.53;;;9.27;;
12429;SDS011;6279;42.192;24.326;2024-02-23T02:38:31;13.00;;;8.47;;
12429;SDS011;6279;42.192;24.326;2024-02-23T02:40:59;13.47;;;8.10;;
12429;SDS011;6279;42.192;24.326;2024-02-23T02:43:25;14.13;;;9.83;;
12429;SDS011;6279;42.192;24.326;2024-02-23T02:45:54;15.73;;;9.37;;
12429;SDS011;6279;42.192;24.326;2024-02-23T02:48:20;11.63;;;8.50;;
12429;SDS011;6279;42.192;24.326;2024-02-23T02:50:45;12.07;;;8.37;;
12429;SDS011;6279;42.192;24.326;2024-02-23T02:53:11;11.67;;;8.40;;
12429;SDS011;6279;42.192;24.326;2024-02-23T02:55:37;12.17;;;7.63;;
12429;SDS011;6279;42.192;24.326;2024-02-23T02:58:06;10.27;;;7.60;;
12429;SDS011;6279;42.192;24.326;2024-02-23T03:00:32;9.37;;;7.47;;
12429;SDS011;6279;42.192;24.326;2024-02-23T03:02:58;13.30;;;7.67;;
12429;SDS011;6279;42.192;24.326;2024-02-23T03:05:23;18.33;;;12.10;;
12429;SDS011;6279;42.192;24.326;2024-02-23T03:07:49;9.20;;;7.30;;
12429;SDS011;6279;42.192;24.326;2024-02-23T03:10:14;11.13;;;8.30;;
12429;SDS011;6279;42.192;24.326;2024-02-23T03:12:40;11.20;;;8.37;;
12429;SDS011;6279;42.192;24.326;2024-02-23T03:15:06;13.07;;;9.07;;
12429;SDS011;6279;42.192;24.326;2024-02-23T03:17:32;12.07;;;8.80;;
12429;SDS011;6279;42.192;24.326;2024-02-23T03:19:58;10.33;;;7.63;;
12429;SDS011;6279;42.192;24.326;2024-02-23T03:22:23;11.50;;;8.70;;
12429;SDS011;6279;42.192;24.326;2024-02-23T03:24:49;15.10;;;8.93;;
12429;SDS011;6279;42.192;24.326;2024-02-23T03:27:14;14.33;;;10.50;;
12429;SDS011;6279;42.192;24.326;2024-02-23T03:29:39;14.93;;;10.93;;
12429;SDS011;6279;42.192;24.326;2024-02-23T03:32:05;15.50;;;10.20;;
12429;SDS011;6279;42.192;24.326;2024-02-23T03:34:31;17.30;;;10.33;;
12429;SDS011;6279;42.192;24.326;2024-02-23T03:36:56;18.87;;;11.27;;
12429;SDS011;6279;42.192;24.326;2024-02-23T03:39:23;18.23;;;11.70;;
12429;SDS011;6279;42.192;24.326;2024-02-23T03:41:49;19.50;;;12.47;;
12429;SDS011;6279;42.192;24.326;2024-02-23T03:44:14;20.63;;;12.13;;
12429;SDS011;6279;42.192;24.326;2024-02-23T03:46:40;19.03;;;11.87;;
12429;SDS011;6279;42.192;24.326;2024-02-23T03:49:05;16.53;;;11.93;;
12429;SDS011;6279;42.192;24.326;2024-02-23T03:51:31;19.13;;;12.73;;
12429;SDS011;6279;42.192;24.326;2024-02-23T03:53:57;23.73;;;18.67;;
12429;SDS011;6279;42.192;24.326;2024-02-23T03:56:25;29.20;;;21.60;;
12429;SDS011;6279;42.192;24.326;2024-02-23T03:58:51;27.27;;;17.50;;
12429;SDS011;6279;42.192;24.326;2024-02-23T04:01:16;27.67;;;19.47;;
12429;SDS011;6279;42.192;24.326;2024-02-23T04:03:41;26.67;;;18.83;;
12429;SDS011;6279;42.192;24.326;2024-02-23T04:06:07;22.70;;;17.20;;
12429;SDS011;6279;42.192;24.326;2024-02-23T04:08:33;25.40;;;17.00;;
12429;SDS011;6279;42.192;24.326;2024-02-23T04:10:58;23.97;;;16.83;;
12429;SDS011;6279;42.192;24.326;2024-02-23T04:13:23;22.63;;;14.90;;
12429;SDS011;6279;42.192;24.326;2024-02-23T04:15:49;20.77;;;14.20;;
12429;SDS011;6279;42.192;24.326;2024-02-23T04:18:22;20.37;;;13.23;;
12429;SDS011;6279;42.192;24.326;2024-02-23T04:20:47;18.77;;;13.90;;
12429;SDS011;6279;42.192;24.326;2024-02-23T04:23:13;20.73;;;14.17;;
12429;SDS011;6279;42.192;24.326;2024-02-23T04:25:39;20.23;;;14.63;;
12429;SDS011;6279;42.192;24.326;2024-02-23T04:28:04;26.60;;;17.67;;
12429;SDS011;6279;42.192;24.326;2024-02-23T04:30:30;45.87;;;30.97;;
12429;SDS011;6279;42.192;24.326;2024-02-23T04:32:55;48.97;;;31.70;;
12429;SDS011;6279;42.192;24.326;2024-02-23T04:35:21;42.93;;;32.17;;
12429;SDS011;6279;42.192;24.326;2024-02-23T04:37:46;39.60;;;29.07;;
12429;SDS011;6279;42.192;24.326;2024-02-23T04:40:13;31.80;;;24.53;;
12429;SDS011;6279;42.192;24.326;2024-02-23T04:42:39;51.70;;;32.30;;
12429;SDS011;6279;42.192;24.326;2024-02-23T04:45:04;89.10;;;52.53;;
12429;SDS011;6279;42.192;24.326;2024-02-23T04:47:30;113.97;;;68.80;;
12429;SDS011;6279;42.192;24.326;2024-02-23T04:49:56;68.77;;;44.57;;
12429;SDS011;6279;42.192;24.326;2024-02-23T04:52:21;42.00;;;28.73;;
12429;SDS011;6279;42.192;24.326;2024-02-23T04:54:46;31.83;;;21.60;;
12429;SDS011;6279;42.192;24.326;2024-02-23T04:57:12;19.83;;;14.50;;
12429;SDS011;6279;42.192;24.326;2024-02-23T04:59:37;24.07;;;16.27;;
12429;SDS011;6279;42.192;24.326;2024-02-23T05:02:03;29.23;;;23.63;;
12429;SDS011;6279;42.192;24.326;2024-02-23T05:04:28;30.87;;;25.67;;
12429;SDS011;6279;42.192;24.326;2024-02-23T05:06:53;22.13;;;16.80;;
12429;SDS011;6279;42.192;24.326;2024-02-23T05:09:19;20.80;;;14.07;;
12429;SDS011;6279;42.192;24.326;2024-02-23T05:11:45;16.63;;;13.03;;
12429;SDS011;6279;42.192;24.326;2024-02-23T05:14:12;15.23;;;12.00;;
12429;SDS011;6279;42.192;24.326;2024-02-23T05:16:37;16.93;;;12.47;;
12429;SDS011;6279;42.192;24.326;2024-02-23T05:19:03;16.07;;;12.17;;
12429;SDS011;6279;42.192;24.326;2024-02-23T05:21:28;14.33;;;10.53;;
12429;SDS011;6279;42.192;24.326;2024-02-23T05:23:54;16.23;;;11.23;;
12429;SDS011;6279;42.192;24.326;2024-02-23T05:26:19;23.43;;;12.33;;
12429;SDS011;6279;42.192;24.326;2024-02-23T05:28:45;21.70;;;10.90;;
12429;SDS011;6279;42.192;24.326;2024-02-23T05:31:10;17.63;;;12.33;;
12429;SDS011;6279;42.192;24.326;2024-02-23T05:33:36;20.20;;;12.70;;
12429;SDS011;6279;42.192;24.326;2024-02-23T05:36:03;21.63;;;14.87;;
12429;SDS011;6279;42.192;24.326;2024-02-23T05:38:29;19.37;;;13.27;;
12429;SDS011;6279;42.192;24.326;2024-02-23T05:40:55;21.63;;;13.63;;
12429;SDS011;6279;42.192;24.326;2024-02-23T05:43:21;18.80;;;14.37;;
12429;SDS011;6279;42.192;24.326;2024-02-23T05:45:46;25.87;;;18.10;;
12429;SDS011;6279;42.192;24.326;2024-02-23T05:48:11;25.90;;;15.47;;
12429;SDS011;6279;42.192;24.326;2024-02-23T05:50:37;19.27;;;13.47;;
12429;SDS011;6279;42.192;24.326;2024-02-23T05:53:02;20.13;;;13.63;;
12429;SDS011;6279;42.192;24.326;2024-02-23T05:55:29;21.53;;;14.60;;
12429;SDS011;6279;42.192;24.326;2024-02-23T05:57:55;25.00;;;16.37;;
12429;SDS011;6279;42.192;24.326;2024-02-23T06:00:21;26.77;;;14.73;;
12429;SDS011;6279;42.192;24.326;2024-02-23T06:02:47;15.40;;;11.87;;
12429;SDS011;6279;42.192;24.326;2024-02-23T06:05:13;15.17;;;11.43;;
12429;SDS011;6279;42.192;24.326;2024-02-23T06:07:38;14.77;;;10.60;;
12429;SDS011;6279;42.192;24.326;2024-02-23T06:10:04;15.00;;;11.03;;
12429;SDS011;6279;42.192;24.326;2024-02-23T06:12:30;15.60;;;11.27;;
12429;SDS011;6279;42.192;24.326;2024-02-23T06:14:55;15.43;;;11.17;;
12429;SDS011;6279;42.192;24.326;2024-02-23T06:17:22;19.10;;;9.93;;
12429;SDS011;6279;42.192;24.326;2024-02-23T06:19:48;13.47;;;8.53;;
12429;SDS011;6279;42.192;24.326;2024-02-23T06:22:13;16.07;;;11.20;;
12429;SDS011;6279;42.192;24.326;2024-02-23T06:24:41;19.27;;;11.40;;
12429;SDS011;6279;42.192;24.326;2024-02-23T06:27:07;15.23;;;12.23;;
12429;SDS011;6279;42.192;24.326;2024-02-23T06:29:33;15.17;;;10.97;;
12429;SDS011;6279;42.192;24.326;2024-02-23T06:31:58;14.07;;;10.50;;
12429;SDS011;6279;42.192;24.326;2024-02-23T06:34:26;49.33;;;36.00;;
12429;SDS011;6279;42.192;24.326;2024-02-23T06:36:52;19.57;;;12.60;;
12429;SDS011;6279;42.192;24.326;2024-02-23T06:39:17;17.57;;;11.00;;
12429;SDS011;6279;42.192;24.326;2024-02-23T06:41:43;16.33;;;11.03;;
12429;SDS011;6279;42.192;24.326;2024-02-23T06:44:08;18.23;;;11.63;;
12429;SDS011;6279;42.192;24.326;2024-02-23T06:46:34;16.90;;;10.73;;
12429;SDS011;6279;42.192;24.326;2024-02-23T06:48:59;19.37;;;11.40;;
12429;SDS011;6279;42.192;24.326;2024-02-23T06:51:25;16.17;;;12.13;;
12429;SDS011;6279;42.192;24.326;2024-02-23T06:53:50;20.60;;;12.40;;
12429;SDS011;6279;42.192;24.326;2024-02-23T06:56:15;16.10;;;11.23;;
12429;SDS011;6279;42.192;24.326;2024-02-23T06:58:41;22.13;;;13.20;;
12429;SDS011;6279;42.192;24.326;2024-02-23T07:01:06;14.80;;;12.07;;
12429;SDS011;6279;42.192;24.326;2024-02-23T07:03:42;14.03;;;10.70;;
12429;SDS011;6279;42.192;24.326;2024-02-23T07:06:10;13.33;;;9.97;;
12429;SDS011;6279;42.192;24.326;2024-02-23T07:08:38;12.53;;;9.43;;
12429;SDS011;6279;42.192;24.326;2024-02-23T07:11:03;11.33;;;9.57;;
12429;SDS011;6279;42.192;24.326;2024-02-23T07:13:29;13.37;;;8.77;;
12429;SDS011;6279;42.192;24.326;2024-02-23T07:15:55;13.47;;;9.00;;
12429;SDS011;6279;42.192;24.326;2024-02-23T07:18:28;11.87;;;8.50;;
12429;SDS011;6279;42.192;24.326;2024-02-23T07:20:53;16.50;;;8.60;;
12429;SDS011;6279;42.192;24.326;2024-02-23T07:23:18;17.53;;;9.40;;
12429;SDS011;6279;42.192;24.326;2024-02-23T07:25:44;13.77;;;8.73;;
12429;SDS011;6279;42.192;24.326;2024-02-23T07:28:09;11.70;;;9.30;;
12429;SDS011;6279;42.192;24.326;2024-02-23T07:30:35;13.30;;;9.47;;
12429;SDS011;6279;42.192;24.326;2024-02-23T07:33:00;13.03;;;8.77;;
12429;SDS011;6279;42.192;24.326;2024-02-23T07:35:26;11.90;;;8.77;;
12429;SDS011;6279;42.192;24.326;2024-02-23T07:37:52;12.03;;;8.80;;
12429;SDS011;6279;42.192;24.326;2024-02-23T07:40:18;11.53;;;8.47;;
12429;SDS011;6279;42.192;24.326;2024-02-23T07:42:43;14.20;;;8.53;;
12429;SDS011;6279;42.192;24.326;2024-02-23T07:45:09;12.10;;;7.90;;
12429;SDS011;6279;42.192;24.326;2024-02-23T07:47:35;14.27;;;8.47;;
12429;SDS011;6279;42.192;24.326;2024-02-23T07:50:00;11.60;;;8.27;;
12429;SDS011;6279;42.192;24.326;2024-02-23T07:52:26;8.83;;;7.90;;
12429;SDS011;6279;42.192;24.326;2024-02-23T07:54:52;8.30;;;7.43;;
12429;SDS011;6279;42.192;24.326;2024-02-23T07:57:18;11.33;;;8.70;;
12429;SDS011;6279;42.192;24.326;2024-02-23T07:59:44;12.23;;;9.07;;
12429;SDS011;6279;42.192;24.326;2024-02-23T08:02:09;9.87;;;8.67;;
12429;SDS011;6279;42.192;24.326;2024-02-23T08:04:34;9.57;;;8.57;;
12429;SDS011;6279;42.192;24.326;2024-02-23T08:07:00;10.93;;;9.03;;
12429;SDS011;6279;42.192;24.326;2024-02-23T08:09:25;11.40;;;9.50;;
12429;SDS011;6279;42.192;24.326;2024-02-23T08:11:51;12.07;;;8.47;;
12429;SDS011;6279;42.192;24.326;2024-02-23T08:14:16;9.43;;;8.53;;
12429;SDS011;6279;42.192;24.326;2024-02-23T08:16:41;11.57;;;8.87;;
12429;SDS011;6279;42.192;24.326;2024-02-23T08:19:07;14.43;;;9.33;;
12429;SDS011;6279;42.192;24.326;2024-02-23T08:21:33;10.43;;;8.83;;
12429;SDS011;6279;42.192;24.326;2024-02-23T08:23:58;13.07;;;10.83;;
12429;SDS011;6279;42.192;24.326;2024-02-23T08:26:24;19.20;;;12.13;;
12429;SDS011;6279;42.192;24.326;2024-02-23T08:28:49;13.00;;;9.47;;
12429;SDS011;6279;42.192;24.326;2024-02-23T08:31:14;12.50;;;9.00;;
12429;SDS011;6279;42.192;24.326;2024-02-23T08:33:41;15.17;;;9.00;;
12429;SDS011;6279;42.192;24.326;2024-02-23T08:36:07;39.20;;;21.33;;
12429;SDS011;6279;42.192;24.326;2024-02-23T08:38:32;13.60;;;10.20;;
12429;SDS011;6279;42.192;24.326;2024-02-23T08:40:58;11.00;;;9.07;;
12429;SDS011;6279;42.192;24.326;2024-02-23T08:43:26;11.97;;;9.40;;
12429;SDS011;6279;42.192;24.326;2024-02-23T08:45:51;11.47;;;9.77;;
12429;SDS011;6279;42.192;24.326;2024-02-23T08:48:17;12.23;;;10.33;;
12429;SDS011;6279;42.192;24.326;2024-02-23T08:50:43;11.43;;;10.23;;
12429;SDS011;6279;42.192;24.326;2024-02-23T08:53:08;15.27;;;10.10;;
12429;SDS011;6279;42.192;24.326;2024-02-23T08:55:33;18.33;;;10.50;;
12429;SDS011;6279;42.192;24.326;2024-02-23T08:57:59;12.70;;;10.70;;
12429;SDS011;6279;42.192;24.326;2024-02-23T09:00:24;11.67;;;10.40;;
12429;SDS011;6279;42.192;24.326;2024-02-23T09:02:50;12.10;;;10.73;;
12429;SDS011;6279;42.192;24.326;2024-02-23T09:05:15;13.47;;;11.37;;
12429;SDS011;6279;42.192;24.326;2024-02-23T09:07:41;12.43;;;10.90;;
12429;SDS011;6279;42.192;24.326;2024-02-23T09:10:07;12.67;;;11.37;;
12429;SDS011;6279;42.192;24.326;2024-02-23T09:12:32;18.30;;;11.23;;
12429;SDS011;6279;42.192;24.326;2024-02-23T09:14:58;12.40;;;11.10;;
12429;SDS011;6279;42.192;24.326;2024-02-23T09:17:23;13.30;;;11.37;;
12429;SDS011;6279;42.192;24.326;2024-02-23T09:19:50;13.57;;;12.03;;
12429;SDS011;6279;42.192;24.326;2024-02-23T09:22:16;19.23;;;11.57;;
12429;SDS011;6279;42.192;24.326;2024-02-23T09:24:41;16.37;;;12.17;;
12429;SDS011;6279;42.192;24.326;2024-02-23T09:27:07;16.17;;;11.63;;
12429;SDS011;6279;42.192;24.326;2024-02-23T09:29:40;12.63;;;11.33;;
12429;SDS011;6279;42.192;24.326;2024-02-23T09:32:05;11.63;;;10.00;;
12429;SDS011;6279;42.192;24.326;2024-02-23T09:34:31;11.23;;;10.13;;
12429;SDS011;6279;42.192;24.326;2024-02-23T09:36:56;11.47;;;9.97;;
12429;SDS011;6279;42.192;24.326;2024-02-23T09:39:22;14.27;;;11.10;;
12429;SDS011;6279;42.192;24.326;2024-02-23T09:41:49;14.40;;;11.27;;
12429;SDS011;6279;42.192;24.326;2024-02-23T09:44:15;13.73;;;10.70;;
12429;SDS011;6279;42.192;24.326;2024-02-23T09:46:42;14.27;;;11.30;;
12429;SDS011;6279;42.192;24.326;2024-02-23T09:49:08;12.93;;;11.48;;
12429;SDS011;6279;42.192;24.326;2024-02-23T09:51:36;12.10;;;10.90;;
12429;SDS011;6279;42.192;24.326;2024-02-23T09:54:04;11.25;;;10.15;;
12429;SDS011;6279;42.192;24.326;2024-02-23T09:56:29;14.57;;;10.93;;
12429;SDS011;6279;42.192;24.326;2024-02-23T09:58:59;12.63;;;11.33;;
12429;SDS011;6279;42.192;24.326;2024-02-23T10:01:30;11.40;;;10.20;;
12429;SDS011;6279;42.192;24.326;2024-02-23T10:03:57;12.17;;;10.10;;
12429;SDS011;6279;42.192;24.326;2024-02-23T10:06:27;13.47;;;9.43;;
12429;SDS011;6279;42.192;24.326;2024-02-23T10:08:52;12.10;;;9.90;;
12429;SDS011;6279;42.192;24.326;2024-02-23T10:11:21;13.70;;;10.80;;
12429;SDS011;6279;42.192;24.326;2024-02-23T10:13:48;11.30;;;10.20;;
12429;SDS011;6279;42.192;24.326;2024-02-23T10:16:19;12.35;;;10.93;;
12429;SDS011;6279;42.192;24.326;2024-02-23T10:18:54;12.07;;;10.87;;
12429;SDS011;6279;42.192;24.326;2024-02-23T10:21:19;12.17;;;9.97;;
12429;SDS011;6279;42.192;24.326;2024-02-23T10:23:45;15.43;;;10.53;;
12429;SDS011;6279;42.192;24.326;2024-02-23T10:26:10;11.87;;;10.67;;
12429;SDS011;6279;42.192;24.326;2024-02-23T10:28:36;12.27;;;10.20;;
12429;SDS011;6279;42.192;24.326;2024-02-23T10:31:04;10.73;;;9.60;;
12429;SDS011;6279;42.192;24.326;2024-02-23T10:33:30;13.47;;;11.30;;
12429;SDS011;6279;42.192;24.326;2024-02-23T10:35:56;12.53;;;11.10;;
12429;SDS011;6279;42.192;24.326;2024-02-23T10:38:23;12.70;;;11.37;;
12429;SDS011;6279;42.192;24.326;2024-02-23T10:40:50;14.50;;;10.90;;
12429;SDS011;6279;42.192;24.326;2024-02-23T10:43:16;13.63;;;11.50;;
12429;SDS011;6279;42.192;24.326;2024-02-23T10:45:46;13.07;;;10.53;;
12429;SDS011;6279;42.192;24.326;2024-02-23T10:48:11;11.95;;;10.75;;
12429;SDS011;6279;42.192;24.326;2024-02-23T10:50:39;16.03;;;11.40;;
12429;SDS011;6279;42.192;24.326;2024-02-23T10:53:07;13.63;;;11.20;;
12429;SDS011;6279;42.192;24.326;2024-02-23T10:55:33;13.10;;;11.15;;
12429;SDS011;6279;42.192;24.326;2024-02-23T10:58:02;12.93;;;11.35;;
12429;SDS011;6279;42.192;24.326;2024-02-23T11:00:28;14.18;;;11.68;;
12429;SDS011;6279;42.192;24.326;2024-02-23T11:02:54;12.10;;;10.73;;
12429;SDS011;6279;42.192;24.326;2024-02-23T11:05:21;13.30;;;11.73;;
12429;SDS011;6279;42.192;24.326;2024-02-23T11:07:47;13.00;;;10.67;;
12429;SDS011;6279;42.192;24.326;2024-02-23T11:10:17;13.70;;;11.17;;
12429;SDS011;6279;42.192;24.326;2024-02-23T11:12:44;13.87;;;11.13;;
12429;SDS011;6279;42.192;24.326;2024-02-23T11:15:09;11.77;;;10.57;;
12429;SDS011;6279;42.192;24.326;2024-02-23T11:17:50;13.33;;;10.73;;
12429;SDS011;6279;42.192;24.326;2024-02-23T11:20:16;12.17;;;10.90;;
12429;SDS011;6279;42.192;24.326;2024-02-23T11:22:41;19.07;;;10.70;;
12429;SDS011;6279;42.192;24.326;2024-02-23T11:25:07;11.83;;;10.60;;
12429;SDS011;6279;42.192;24.326;2024-02-23T11:27:33;15.07;;;11.10;;
12429;SDS011;6279;42.192;24.326;2024-02-23T11:30:07;12.52;;;11.18;;
12429;SDS011;6279;42.192;24.326;2024-02-23T11:32:43;11.57;;;10.48;;
12429;SDS011;6279;42.192;24.326;2024-02-23T11:35:12;9.40;;;7.97;;
12429;SDS011;6279;42.192;24.326;2024-02-23T11:40:28;10.90;;;8.77;;
12429;SDS011;6279;42.192;24.326;2024-02-23T11:42:55;12.63;;;9.30;;
12429;SDS011;6279;42.192;24.326;2024-02-23T11:45:21;13.17;;;9.97;;
12429;SDS011;6279;42.192;24.326;2024-02-23T11:47:47;11.73;;;9.73;;
12429;SDS011;6279;42.192;24.326;2024-02-23T11:50:13;13.90;;;9.57;;
12429;SDS011;6279;42.192;24.326;2024-02-23T11:52:39;13.20;;;9.83;;
12429;SDS011;6279;42.192;24.326;2024-02-23T11:55:05;10.90;;;9.50;;
12429;SDS011;6279;42.192;24.326;2024-02-23T11:57:32;10.07;;;8.83;;
12429;SDS011;6279;42.192;24.326;2024-02-23T11:59:58;10.80;;;9.13;;
12429;SDS011;6279;42.192;24.326;2024-02-23T12:02:23;13.13;;;9.50;;
12429;SDS011;6279;42.192;24.326;2024-02-23T12:04:49;12.93;;;9.80;;
12429;SDS011;6279;42.192;24.326;2024-02-23T12:07:15;9.67;;;8.53;;
12429;SDS011;6279;42.192;24.326;2024-02-23T12:09:41;13.20;;;8.80;;
12429;SDS011;6279;42.192;24.326;2024-02-23T12:12:07;9.93;;;8.50;;
12429;SDS011;6279;42.192;24.326;2024-02-23T12:14:34;7.53;;;6.50;;
12429;SDS011;6279;42.192;24.326;2024-02-23T12:17:01;7.60;;;6.80;;
12429;SDS011;6279;42.192;24.326;2024-02-23T12:19:29;7.60;;;6.80;;
12429;SDS011;6279;42.192;24.326;2024-02-23T12:21:59;7.33;;;6.33;;
12429;SDS011;6279;42.192;24.326;2024-02-23T12:24:25;8.80;;;6.43;;
12429;SDS011;6279;42.192;24.326;2024-02-23T12:26:55;6.63;;;5.90;;
12429;SDS011;6279;42.192;24.326;2024-02-23T12:29:21;6.23;;;5.57;;
12429;SDS011;6279;42.192;24.326;2024-02-23T12:31:47;6.87;;;6.17;;
12429;SDS011;6279;42.192;24.326;2024-02-23T12:34:13;7.50;;;6.80;;
12429;SDS011;6279;42.192;24.326;2024-02-23T12:36:38;8.17;;;6.63;;
12429;SDS011;6279;42.192;24.326;2024-02-23T12:39:04;8.13;;;7.33;;
12429;SDS011;6279;42.192;24.326;2024-02-23T12:41:29;12.73;;;7.70;;
12429;SDS011;6279;42.192;24.326;2024-02-23T12:43:55;9.23;;;7.40;;
12429;SDS011;6279;42.192;24.326;2024-02-23T12:46:20;9.03;;;7.17;;
12429;SDS011;6279;42.192;24.326;2024-02-23T12:48:46;8.07;;;6.93;;
12429;SDS011;6279;42.192;24.326;2024-02-23T12:51:11;8.60;;;7.50;;
12429;SDS011;6279;42.192;24.326;2024-02-23T12:53:38;8.53;;;7.17;;
12429;SDS011;6279;42.192;24.326;2024-02-23T12:56:09;9.03;;;7.63;;
12429;SDS011;6279;42.192;24.326;2024-02-23T12:58:41;8.97;;;7.90;;
12429;SDS011;6279;42.192;24.326;2024-02-23T13:01:07;9.67;;;8.50;;
12429;SDS011;6279;42.192;24.326;2024-02-23T13:03:33;11.50;;;8.67;;
12429;SDS011;6279;42.192;24.326;2024-02-23T13:06:01;12.73;;;8.30;;
12429;SDS011;6279;42.192;24.326;2024-02-23T13:08:27;10.53;;;8.93;;
12429;SDS011;6279;42.192;24.326;2024-02-23T13:10:53;10.10;;;8.67;;
12429;SDS011;6279;42.192;24.326;2024-02-23T13:13:19;11.37;;;8.70;;
12429;SDS011;6279;42.192;24.326;2024-02-23T13:15:47;9.60;;;8.60;;
12429;SDS011;6279;42.192;24.326;2024-02-23T13:18:13;11.20;;;8.40;;
12429;SDS011;6279;42.192;24.326;2024-02-23T13:20:45;10.10;;;7.77;;
12429;SDS011;6279;42.192;24.326;2024-02-23T13:23:11;12.07;;;8.67;;
12429;SDS011;6279;42.192;24.326;2024-02-23T13:25:39;9.67;;;8.33;;
12429;SDS011;6279;42.192;24.326;2024-02-23T13:28:05;10.87;;;8.00;;
12429;SDS011;6279;42.192;24.326;2024-02-23T13:30:31;9.80;;;8.30;;
12429;SDS011;6279;42.192;24.326;2024-02-23T13:32:57;9.53;;;8.03;;
12429;SDS011;6279;42.192;24.326;2024-02-23T13:35:23;10.80;;;8.20;;
12429;SDS011;6279;42.192;24.326;2024-02-23T13:37:51;10.47;;;7.93;;
12429;SDS011;6279;42.192;24.326;2024-02-23T13:40:17;9.13;;;8.10;;
12429;SDS011;6279;42.192;24.326;2024-02-23T13:42:43;11.43;;;8.90;;
12429;SDS011;6279;42.192;24.326;2024-02-23T13:45:11;12.07;;;9.40;;
12429;SDS011;6279;42.192;24.326;2024-02-23T13:47:39;11.63;;;8.73;;
12429;SDS011;6279;42.192;24.326;2024-02-23T13:50:05;12.30;;;8.83;;
12429;SDS011;6279;42.192;24.326;2024-02-23T13:52:30;10.47;;;9.20;;
12429;SDS011;6279;42.192;24.326;2024-02-23T13:54:56;10.77;;;9.07;;
12429;SDS011;6279;42.192;24.326;2024-02-23T13:57:22;14.03;;;9.73;;
12429;SDS011;6279;42.192;24.326;2024-02-23T13:59:47;10.13;;;7.93;;
12429;SDS011;6279;42.192;24.326;2024-02-23T14:02:13;11.07;;;8.83;;
12429;SDS011;6279;42.192;24.326;2024-02-23T14:04:38;11.67;;;8.57;;
12429;SDS011;6279;42.192;24.326;2024-02-23T14:07:04;15.50;;;9.57;;
12429;SDS011;6279;42.192;24.326;2024-02-23T14:09:29;10.27;;;8.53;;
12429;SDS011;6279;42.192;24.326;2024-02-23T14:11:55;11.13;;;8.80;;
12429;SDS011;6279;42.192;24.326;2024-02-23T14:14:21;11.37;;;8.67;;
12429;SDS011;6279;42.192;24.326;2024-02-23T14:16:46;13.40;;;8.43;;
12429;SDS011;6279;42.192;24.326;2024-02-23T14:19:11;11.80;;;8.60;;
12429;SDS011;6279;42.192;24.326;2024-02-23T14:21:37;13.77;;;9.00;;
12429;SDS011;6279;42.192;24.326;2024-02-23T14:24:02;11.60;;;8.40;;